createdAt,value
2019-01-06T00:01:41.246Z,100.00
2019-01-06T00:04:38.172Z,100.00
2019-01-06T00:07:24.939Z,100.00
2019-01-06T00:10:09.255Z,100.00
2019-01-06T00:12:53.243Z,100.00
2019-01-06T00:15:38.433Z,100.00
2019-01-06T00:18:23.940Z,100.00
2019-01-06T00:21:09.507Z,100.00
2019-01-06T00:24:10.011Z,100.00
2019-01-06T00:26:59.984Z,100.00
2019-01-06T00:29:53.744Z,100.00
2019-01-06T00:32:39.238Z,100.00
2019-01-06T00:35:22.884Z,100.00
2019-01-06T00:38:08.226Z,100.00
2019-01-06T00:40:54.927Z,100.00
2019-01-06T00:43:36.893Z,100.00
2019-01-06T00:46:23.059Z,100.00
2019-01-06T00:49:01.719Z,100.00
2019-01-06T00:51:48.724Z,100.00
2019-01-06T00:54:47.258Z,100.00
2019-01-06T00:57:32.826Z,100.00
2019-01-06T01:00:11.403Z,100.00
2019-01-06T01:03:01.509Z,100.00
2019-01-06T01:05:55.238Z,100.00
2019-01-06T01:08:41.645Z,100.00
2019-01-06T01:11:21.215Z,100.00
2019-01-06T01:14:06.679Z,100.00
2019-01-06T01:16:52.271Z,100.00
2019-01-06T01:19:31.107Z,100.00
2019-01-06T01:22:33.142Z,100.00
2019-01-06T01:25:19.445Z,100.00
2019-01-06T01:28:05.046Z,100.00
2019-01-06T01:30:58.467Z,100.00
2019-01-06T01:33:54.081Z,100.00
2019-01-06T01:36:46.993Z,100.00
2019-01-06T01:39:32.884Z,100.00
2019-01-06T01:42:19.076Z,100.00
2019-01-06T01:45:08.977Z,100.00
2019-01-06T01:48:01.500Z,100.00
2019-01-06T01:50:46.823Z,100.00
2019-01-06T01:53:27.218Z,100.00
2019-01-06T01:56:10.120Z,100.00
2019-01-06T01:58:55.651Z,100.00
2019-01-06T02:01:45.458Z,100.00
2019-01-06T02:04:31.112Z,100.00
2019-01-06T02:07:16.768Z,100.00
2019-01-06T02:09:56.410Z,100.00
2019-01-06T02:12:42.228Z,100.00
2019-01-06T02:15:29.994Z,100.00
2019-01-06T02:18:17.018Z,100.00
2019-01-06T02:21:16.905Z,100.00
2019-01-06T02:24:02.000Z,100.00
2019-01-06T02:27:02.978Z,100.00
2019-01-06T02:29:55.939Z,100.00
2019-01-06T02:32:51.722Z,100.00
2019-01-06T02:35:57.579Z,100.00
2019-01-06T02:38:42.936Z,100.00
2019-01-06T02:41:30.556Z,100.00
2019-01-06T02:44:26.453Z,100.00
2019-01-06T02:47:19.247Z,100.00
2019-01-06T02:50:24.396Z,100.00
2019-01-06T02:53:12.461Z,100.00
2019-01-06T02:56:01.812Z,100.00
2019-01-06T02:59:06.622Z,100.00
2019-01-06T03:01:53.319Z,100.00
2019-01-06T03:04:50.511Z,100.00
2019-01-06T03:07:32.532Z,100.00
2019-01-06T03:10:20.660Z,100.00
2019-01-06T03:13:07.473Z,100.00
2019-01-06T03:15:52.537Z,100.00
2019-01-06T03:18:48.543Z,100.00
2019-01-06T03:21:46.030Z,100.00
2019-01-06T03:24:32.209Z,100.00
2019-01-06T03:27:10.946Z,100.00
2019-01-06T03:29:56.488Z,100.00
2019-01-06T03:32:43.172Z,100.00
2019-01-06T03:35:29.773Z,100.00
2019-01-06T03:38:25.584Z,100.00
2019-01-06T03:41:18.025Z,100.00
2019-01-06T03:44:03.618Z,100.00
2019-01-06T03:46:50.428Z,100.00
2019-01-06T03:49:36.158Z,100.00
2019-01-06T03:52:23.666Z,100.00
2019-01-06T03:55:10.640Z,100.00
2019-01-06T03:58:05.961Z,100.00
2019-01-06T04:00:51.646Z,100.00
2019-01-06T04:03:56.865Z,100.00
2019-01-06T04:06:46.843Z,100.00
2019-01-06T04:09:32.275Z,100.00
2019-01-06T04:12:25.040Z,100.00
2019-01-06T04:15:06.347Z,100.00
2019-01-06T04:17:52.763Z,100.00
2019-01-06T04:20:38.495Z,100.00
2019-01-06T04:23:40.652Z,100.00
2019-01-06T04:26:27.394Z,100.00
2019-01-06T04:29:22.455Z,100.00
2019-01-06T04:32:08.442Z,100.00
2019-01-06T04:34:53.856Z,100.00
2019-01-06T04:37:43.058Z,100.00
2019-01-06T04:40:32.922Z,100.00
2019-01-06T04:43:34.863Z,100.00
2019-01-06T04:46:22.567Z,100.00
2019-01-06T04:49:15.050Z,100.00
2019-01-06T04:52:00.701Z,100.00
2019-01-06T04:54:47.394Z,100.00
2019-01-06T04:57:34.076Z,100.00
2019-01-06T05:00:21.408Z,100.00
2019-01-06T05:03:17.415Z,100.00
2019-01-06T05:06:07.099Z,100.00
2019-01-06T05:08:52.404Z,100.00
2019-01-06T05:11:39.046Z,100.00
2019-01-06T05:14:24.950Z,100.00
2019-01-06T05:17:17.289Z,100.00
2019-01-06T05:20:03.770Z,100.00
2019-01-06T05:22:50.321Z,100.00
2019-01-06T05:25:51.105Z,100.00
2019-01-06T05:28:36.670Z,100.00
2019-01-06T05:31:32.190Z,100.00
2019-01-06T05:34:17.485Z,100.00
2019-01-06T05:37:02.630Z,100.00
2019-01-06T05:39:52.530Z,100.00
2019-01-06T05:42:48.385Z,100.00
2019-01-06T05:45:53.813Z,100.00
2019-01-06T05:48:46.841Z,100.00
2019-01-06T05:51:48.895Z,100.00
2019-01-06T05:54:36.031Z,100.00
2019-01-06T05:57:24.885Z,100.00
2019-01-06T06:00:11.192Z,100.00
2019-01-06T06:02:54.881Z,100.00
2019-01-06T06:05:32.713Z,100.00
2019-01-06T06:08:19.359Z,100.00
2019-01-06T06:11:10.335Z,100.00
2019-01-06T06:14:09.260Z,100.00
2019-01-06T06:16:55.936Z,100.00
2019-01-06T06:19:45.132Z,100.00
2019-01-06T06:22:23.918Z,100.00
2019-01-06T06:25:08.968Z,100.00
2019-01-06T06:27:54.576Z,100.00
2019-01-06T06:30:57.156Z,100.00
2019-01-06T06:33:50.106Z,100.00
2019-01-06T06:36:31.865Z,100.00
2019-01-06T06:39:17.425Z,100.00
2019-01-06T06:42:04.402Z,100.00
2019-01-06T06:44:46.801Z,100.00
2019-01-06T06:47:52.461Z,100.00
2019-01-06T06:50:37.955Z,100.00
2019-01-06T06:53:39.989Z,100.00
2019-01-06T06:56:25.934Z,100.00
2019-01-06T06:59:10.617Z,100.00
2019-01-06T07:02:46.376Z,100.00
2019-01-06T07:05:41.582Z,100.00
2019-01-06T07:08:31.921Z,100.00
2019-01-06T07:11:10.801Z,100.00
2019-01-06T07:14:01.608Z,100.00
2019-01-06T07:17:19.451Z,100.00
2019-01-06T07:20:06.201Z,100.00
2019-01-06T07:22:58.543Z,100.00
2019-01-06T07:25:42.174Z,100.00
2019-01-06T07:28:27.301Z,100.00
2019-01-06T07:31:29.015Z,100.00
2019-01-06T07:34:22.049Z,100.00
2019-01-06T07:37:07.853Z,100.00
2019-01-06T07:40:09.055Z,100.00
2019-01-06T07:42:49.633Z,100.00
2019-01-06T07:46:02.776Z,100.00
2019-01-06T07:49:02.293Z,100.00
2019-01-06T07:51:59.345Z,100.00
2019-01-06T07:54:44.201Z,100.00
2019-01-06T07:57:43.005Z,100.00
2019-01-06T08:00:21.006Z,100.00
2019-01-06T08:03:11.094Z,100.00
2019-01-06T08:05:59.147Z,100.00
2019-01-06T08:08:45.025Z,100.00
2019-01-06T08:11:30.038Z,100.00
2019-01-06T08:14:18.029Z,100.00
2019-01-06T08:17:20.097Z,100.00
2019-01-06T08:20:05.678Z,100.00
2019-01-06T08:23:10.105Z,99.89
2019-01-06T08:26:04.342Z,100.00
2019-01-06T08:28:50.277Z,100.00
2019-01-06T08:31:40.833Z,99.30
2019-01-06T08:34:24.698Z,99.58
2019-01-06T08:37:17.265Z,100.00
2019-01-06T08:40:02.684Z,99.36
2019-01-06T08:42:48.339Z,99.09
2019-01-06T08:45:34.998Z,98.46
2019-01-06T08:48:34.118Z,98.66
2019-01-06T08:51:33.129Z,98.95
2019-01-06T08:54:20.247Z,100.00
2019-01-06T08:57:14.328Z,100.00
2019-01-06T08:59:59.867Z,96.77
2019-01-06T09:02:46.927Z,95.51
2019-01-06T09:05:32.706Z,95.85
2019-01-06T09:08:34.884Z,95.57
2019-01-06T09:11:20.205Z,95.84
2019-01-06T09:14:06.011Z,95.47
2019-01-06T09:16:53.778Z,95.44
2019-01-06T09:19:54.309Z,95.33
2019-01-06T09:22:43.768Z,95.07
2019-01-06T09:25:29.119Z,93.45
2019-01-06T09:28:28.002Z,94.33
2019-01-06T09:31:14.204Z,93.55
2019-01-06T09:33:59.626Z,93.64
2019-01-06T09:36:52.682Z,94.55
2019-01-06T09:39:38.778Z,93.52
2019-01-06T09:42:27.375Z,93.65
2019-01-06T09:45:24.301Z,94.61
2019-01-06T09:48:20.612Z,94.58
2019-01-06T09:51:10.235Z,94.71
2019-01-06T09:54:01.775Z,94.30
2019-01-06T09:56:48.430Z,94.93
2019-01-06T09:59:50.541Z,96.18
2019-01-06T10:02:40.253Z,96.28
2019-01-06T10:05:26.468Z,94.54
2019-01-06T10:08:13.009Z,91.65
2019-01-06T10:10:59.830Z,91.96
2019-01-06T10:13:50.831Z,89.43
2019-01-06T10:16:38.769Z,89.27
2019-01-06T10:19:25.438Z,88.12
2019-01-06T10:22:22.335Z,89.29
2019-01-06T10:25:08.999Z,88.72
2019-01-06T10:27:49.487Z,88.90
2019-01-06T10:30:48.247Z,90.82
2019-01-06T10:33:36.432Z,90.00
2019-01-06T10:36:29.209Z,89.68
2019-01-06T10:39:16.019Z,89.07
2019-01-06T10:41:55.435Z,89.20
2019-01-06T10:44:51.558Z,88.89
2019-01-06T10:47:40.116Z,90.29
2019-01-06T10:50:25.888Z,89.36
2019-01-06T10:53:27.882Z,91.63
2019-01-06T10:56:13.390Z,88.41
2019-01-06T10:59:02.721Z,86.98
2019-01-06T11:01:48.153Z,87.33
2019-01-06T11:04:45.106Z,87.84
2019-01-06T11:07:32.916Z,87.53
2019-01-06T11:10:20.691Z,86.74
2019-01-06T11:13:24.867Z,87.97
2019-01-06T11:16:04.356Z,87.33
2019-01-06T11:18:59.771Z,88.30
2019-01-06T11:21:41.745Z,88.43
2019-01-06T11:24:37.398Z,86.71
2019-01-06T11:27:25.050Z,88.63
2019-01-06T11:30:11.566Z,87.71
2019-01-06T11:32:57.606Z,88.85
2019-01-06T11:35:44.388Z,87.48
2019-01-06T11:38:29.938Z,84.98
2019-01-06T11:41:15.686Z,85.46
2019-01-06T11:44:05.696Z,84.72
2019-01-06T11:47:04.537Z,84.93
2019-01-06T11:49:54.221Z,84.81
2019-01-06T11:52:52.658Z,85.21
2019-01-06T11:55:45.601Z,84.76
2019-01-06T11:58:35.082Z,86.65
2019-01-06T12:01:19.928Z,86.73
2019-01-06T12:04:05.469Z,87.91
2019-01-06T12:07:09.011Z,87.37
2019-01-06T12:09:54.382Z,88.62
2019-01-06T12:12:39.419Z,89.55
2019-01-06T12:15:28.150Z,89.16
2019-01-06T12:18:14.582Z,88.79
2019-01-06T12:21:00.179Z,89.36
2019-01-06T12:23:50.394Z,88.66
2019-01-06T12:26:37.118Z,87.41
2019-01-06T12:29:15.098Z,89.11
2019-01-06T12:32:20.431Z,89.49
2019-01-06T12:35:10.374Z,90.33
2019-01-06T12:37:56.233Z,90.25
2019-01-06T12:41:01.154Z,92.07
2019-01-06T12:44:03.716Z,92.03
2019-01-06T12:47:02.479Z,93.54
2019-01-06T12:49:49.139Z,93.31
2019-01-06T12:52:39.186Z,92.26
2019-01-06T12:55:21.828Z,92.14
2019-01-06T12:58:09.191Z,92.38
2019-01-06T13:00:53.608Z,93.06
2019-01-06T13:03:39.242Z,93.93
2019-01-06T13:06:22.844Z,94.53
2019-01-06T13:09:07.883Z,93.34
2019-01-06T13:11:53.614Z,94.77
2019-01-06T13:14:46.377Z,94.19
2019-01-06T13:17:48.215Z,94.82
2019-01-06T13:20:34.948Z,94.01
2019-01-06T13:23:21.138Z,95.14
2019-01-06T13:26:05.584Z,95.64
2019-01-06T13:28:54.811Z,94.31
2019-01-06T13:31:52.333Z,93.56
2019-01-06T13:34:42.029Z,94.36
2019-01-06T13:37:28.707Z,94.22
2019-01-06T13:40:19.167Z,92.87
2019-01-06T13:43:24.954Z,93.21
2019-01-06T13:46:11.799Z,94.57
2019-01-06T13:49:07.362Z,94.35
2019-01-06T13:51:53.018Z,94.29
2019-01-06T13:54:51.860Z,94.29
2019-01-06T13:57:37.298Z,94.76
2019-01-06T14:00:32.394Z,94.78
2019-01-06T14:03:18.055Z,94.91
2019-01-06T14:06:03.253Z,92.41
2019-01-06T14:08:48.991Z,94.28
2019-01-06T14:11:37.027Z,94.67
2019-01-06T14:14:23.527Z,94.40
2019-01-06T14:17:08.742Z,93.08
2019-01-06T14:20:04.570Z,93.36
2019-01-06T14:22:51.186Z,93.70
2019-01-06T14:25:36.617Z,93.62
2019-01-06T14:28:30.057Z,93.04
2019-01-06T14:31:21.771Z,93.82
2019-01-06T14:34:14.753Z,94.10
2019-01-06T14:37:16.908Z,95.19
2019-01-06T14:40:15.506Z,94.62
2019-01-06T14:43:05.343Z,94.42
2019-01-06T14:46:10.273Z,93.65
2019-01-06T14:48:59.850Z,94.16
2019-01-06T14:51:46.949Z,93.28
2019-01-06T14:54:45.620Z,95.44
2019-01-06T14:57:38.266Z,94.16
2019-01-06T15:00:44.208Z,93.92
2019-01-06T15:03:44.511Z,94.39
2019-01-06T15:06:35.124Z,95.96
2019-01-06T15:09:29.637Z,96.13
2019-01-06T15:12:15.746Z,95.60
2019-01-06T15:15:02.027Z,97.48
2019-01-06T15:17:49.829Z,96.39
2019-01-06T15:20:45.371Z,95.86
2019-01-06T15:23:32.042Z,96.21
2019-01-06T15:26:25.602Z,96.12
2019-01-06T15:29:13.756Z,96.01
2019-01-06T15:31:56.204Z,96.08
2019-01-06T15:34:57.990Z,95.56
2019-01-06T15:37:44.667Z,97.31
2019-01-06T15:40:37.343Z,96.26
2019-01-06T15:43:29.314Z,96.24
2019-01-06T15:46:28.348Z,96.14
2019-01-06T15:49:27.342Z,95.80
2019-01-06T15:52:14.848Z,96.40
2019-01-06T15:55:14.297Z,95.82
2019-01-06T15:58:04.261Z,94.71
2019-01-06T16:00:51.242Z,94.45
2019-01-06T16:03:51.280Z,96.18
2019-01-06T16:06:37.944Z,96.47
2019-01-06T16:09:22.154Z,96.10
2019-01-06T16:12:07.822Z,96.24
2019-01-06T16:15:09.906Z,95.87
2019-01-06T16:17:56.998Z,95.76
2019-01-06T16:20:36.466Z,94.95
2019-01-06T16:23:16.062Z,95.07
2019-01-06T16:25:58.971Z,95.11
2019-01-06T16:28:59.618Z,96.62
2019-01-06T16:31:45.157Z,96.82
2019-01-06T16:34:33.019Z,97.60
2019-01-06T16:37:19.715Z,98.28
2019-01-06T16:40:05.047Z,99.85
2019-01-06T16:42:51.875Z,99.35
2019-01-06T16:45:50.895Z,98.39
2019-01-06T16:48:41.453Z,99.30
2019-01-06T16:51:27.025Z,97.77
2019-01-06T16:54:23.667Z,98.28
2019-01-06T16:57:11.882Z,98.65
2019-01-06T17:00:05.676Z,98.29
2019-01-06T17:02:53.026Z,96.62
2019-01-06T17:05:41.114Z,96.81
2019-01-06T17:08:28.405Z,97.88
2019-01-06T17:11:30.179Z,96.26
2019-01-06T17:14:17.932Z,96.28
2019-01-06T17:17:03.871Z,97.06
2019-01-06T17:19:47.066Z,96.24
2019-01-06T17:22:36.367Z,95.88
2019-01-06T17:25:21.962Z,94.81
2019-01-06T17:28:17.359Z,94.84
2019-01-06T17:31:13.160Z,94.08
2019-01-06T17:34:03.930Z,94.08
2019-01-06T17:36:49.949Z,93.12
2019-01-06T17:39:36.148Z,92.23
2019-01-06T17:42:25.779Z,92.42
2019-01-06T17:45:11.173Z,90.80
2019-01-06T17:47:57.826Z,90.63
2019-01-06T17:50:50.890Z,89.94
2019-01-06T17:53:55.818Z,90.49
2019-01-06T17:56:58.988Z,89.51
2019-01-06T17:59:57.954Z,89.63
2019-01-06T18:02:44.440Z,89.16
2019-01-06T18:05:36.065Z,88.86
2019-01-06T18:08:20.995Z,88.98
2019-01-06T18:11:06.037Z,90.24
2019-01-06T18:13:48.818Z,90.11
2019-01-06T18:16:39.590Z,90.62
2019-01-06T18:19:29.276Z,90.86
2019-01-06T18:22:36.481Z,90.25
2019-01-06T18:25:34.829Z,89.70
2019-01-06T18:28:41.430Z,89.24
2019-01-06T18:31:39.731Z,88.77
2019-01-06T18:34:26.787Z,89.08
2019-01-06T18:37:13.456Z,89.08
2019-01-06T18:40:00.083Z,89.24
2019-01-06T18:43:02.776Z,88.91
2019-01-06T18:45:49.578Z,88.26
2019-01-06T18:48:40.553Z,89.05
2019-01-06T18:51:40.060Z,89.53
2019-01-06T18:54:36.117Z,88.26
2019-01-06T18:57:33.928Z,87.66
2019-01-06T19:00:20.978Z,87.65
2019-01-06T19:03:06.706Z,88.61
2019-01-06T19:06:08.654Z,88.28
2019-01-06T19:08:52.001Z,88.56
2019-01-06T19:11:39.081Z,88.07
2019-01-06T19:14:32.934Z,88.59
2019-01-06T19:17:26.783Z,88.09
2019-01-06T19:20:12.616Z,88.98
2019-01-06T19:22:59.767Z,88.67
2019-01-06T19:26:05.255Z,88.79
2019-01-06T19:28:57.833Z,87.85
2019-01-06T19:31:57.883Z,86.82
2019-01-06T19:34:52.841Z,88.98
2019-01-06T19:37:34.615Z,89.64
2019-01-06T19:40:21.736Z,89.48
2019-01-06T19:43:11.264Z,89.44
2019-01-06T19:45:49.822Z,88.06
2019-01-06T19:48:38.447Z,87.69
2019-01-06T19:51:19.703Z,88.44
2019-01-06T19:54:05.348Z,86.92
2019-01-06T19:56:46.302Z,86.77
2019-01-06T19:59:38.611Z,86.14
2019-01-06T20:02:15.828Z,88.09
2019-01-06T20:04:57.898Z,87.28
2019-01-06T20:07:40.164Z,87.17
2019-01-06T20:10:27.013Z,87.28
2019-01-06T20:13:12.578Z,87.10
2019-01-06T20:16:07.822Z,86.94
2019-01-06T20:19:04.179Z,86.42
2019-01-06T20:21:50.839Z,86.67
2019-01-06T20:24:36.075Z,87.46
2019-01-06T20:27:21.621Z,85.76
2019-01-06T20:30:07.283Z,85.56
2019-01-06T20:32:54.310Z,85.36
2019-01-06T20:35:35.808Z,85.38
2019-01-06T20:38:25.305Z,84.62
2019-01-06T20:41:07.486Z,83.38
2019-01-06T20:44:02.918Z,83.66
2019-01-06T20:46:48.165Z,85.32
2019-01-06T20:49:34.832Z,85.53
2019-01-06T20:52:25.271Z,86.19
2019-01-06T20:55:10.337Z,84.92
2019-01-06T20:58:03.725Z,84.89
2019-01-06T21:00:53.842Z,84.13
2019-01-06T21:03:46.542Z,83.18
2019-01-06T21:06:39.308Z,83.20
2019-01-06T21:09:36.137Z,82.50
2019-01-06T21:12:14.420Z,82.52
2019-01-06T21:15:13.791Z,82.52
2019-01-06T21:17:59.430Z,83.69
2019-01-06T21:20:55.178Z,82.29
2019-01-06T21:23:44.845Z,82.56
2019-01-06T21:26:30.199Z,82.73
2019-01-06T21:29:29.195Z,83.83
2019-01-06T21:32:27.921Z,84.62
2019-01-06T21:35:24.544Z,84.20
2019-01-06T21:38:10.098Z,84.07
2019-01-06T21:40:55.736Z,84.59
2019-01-06T21:43:57.769Z,83.88
2019-01-06T21:46:54.826Z,83.50
2019-01-06T21:49:41.631Z,83.68
2019-01-06T21:52:28.699Z,83.79
2019-01-06T21:55:30.299Z,84.01
2019-01-06T21:58:15.462Z,83.27
2019-01-06T22:01:17.490Z,83.40
2019-01-06T22:04:02.190Z,84.71
2019-01-06T22:06:55.050Z,84.67
2019-01-06T22:09:56.789Z,82.75
2019-01-06T22:12:41.772Z,83.60
2019-01-06T22:15:24.623Z,82.38
2019-01-06T22:18:12.046Z,82.39
2019-01-06T22:20:58.570Z,83.18
2019-01-06T22:23:50.244Z,82.51
2019-01-06T22:26:49.067Z,82.63
2019-01-06T22:29:54.386Z,82.78
2019-01-06T22:32:56.480Z,83.62
2019-01-06T22:35:54.456Z,82.73
2019-01-06T22:38:59.194Z,84.58
2019-01-06T22:41:56.784Z,84.96
2019-01-06T22:44:42.227Z,84.80
2019-01-06T22:47:40.606Z,85.61
2019-01-06T22:50:30.006Z,86.11
2019-01-06T22:53:19.757Z,85.06
2019-01-06T22:56:03.436Z,85.88
2019-01-06T22:58:50.514Z,86.07
2019-01-06T23:01:47.011Z,83.91
2019-01-06T23:04:23.097Z,86.27
2019-01-06T23:07:23.610Z,85.84
2019-01-06T23:10:06.340Z,87.02
2019-01-06T23:12:50.811Z,86.46
2019-01-06T23:15:36.698Z,86.30
2019-01-06T23:18:23.267Z,86.42
2019-01-06T23:21:23.230Z,86.11
2019-01-06T23:24:13.372Z,86.54
2019-01-06T23:26:52.859Z,85.83
2019-01-06T23:29:42.221Z,85.81
2019-01-06T23:32:34.493Z,84.80
2019-01-06T23:35:21.041Z,85.88
2019-01-06T23:38:17.201Z,86.41
2019-01-06T23:41:12.499Z,86.80
2019-01-06T23:44:01.133Z,87.18
2019-01-06T23:46:50.937Z,86.98
2019-01-06T23:49:52.695Z,86.09
2019-01-06T23:52:41.657Z,85.98
2019-01-06T23:55:31.096Z,87.11
2019-01-06T23:58:15.462Z,86.88
